Time;durP1;ratioP1;P1;durP2;ratioP2;P2;SDS_P1;SDS_P2;PMS_P1;PMS_P2;Temp;Humidity;BMP_temperature;BMP_pressure;BME280_temperature;BME280_humidity;BME280_pressure;Samples;Min_cycle;Max_cycle;Signal;HPM_P1;HPM_P2
2023/09/05 00:02:16;;;;;;;8.30;5.22;;;16.10;99.90;;;;;;5004440;28;20038;-73
2023/09/05 00:04:42;;;;;;;8.40;5.03;;;16.10;99.90;;;;;;5002698;28;20418;-73
2023/09/05 00:07:09;;;;;;;8.00;5.50;;;16.00;99.90;;;;;;5005387;28;20117;-73
2023/09/05 00:09:36;;;;;;;7.80;4.55;;;16.00;99.90;;;;;;5004454;28;20156;-73
2023/09/05 00:12:05;;;;;;;7.70;5.10;;;16.00;99.90;;;;;;5004599;28;20400;-73
2023/09/05 00:14:31;;;;;;;7.05;5.03;;;16.00;99.90;;;;;;5002204;28;20053;-73
2023/09/05 00:16:56;;;;;;;6.70;5.47;;;16.00;99.90;;;;;;5004229;28;20038;-73
2023/09/05 00:19:22;;;;;;;9.43;5.18;;;16.00;99.90;;;;;;5004285;28;20052;-73
2023/09/05 00:21:48;;;;;;;8.57;5.38;;;16.00;99.90;;;;;;5003390;28;20471;-73
2023/09/05 00:24:39;;;;;;;9.98;5.55;;;16.00;99.90;;;;;;5003608;28;20041;-73
2023/09/05 00:27:10;;;;;;;8.70;4.90;;;15.90;99.90;;;;;;5004631;28;20038;-73
2023/09/05 00:29:36;;;;;;;10.73;5.28;;;16.00;99.90;;;;;;5002440;28;20053;-73
2023/09/05 00:32:03;;;;;;;7.57;5.20;;;16.00;99.90;;;;;;5004360;28;20034;-73
2023/09/05 00:34:31;;;;;;;14.35;5.82;;;15.90;99.90;;;;;;5003861;28;20511;-73
2023/09/05 00:36:58;;;;;;;9.95;6.03;;;15.90;99.90;;;;;;5003682;28;20048;-73
2023/09/05 00:39:28;;;;;;;8.48;5.57;;;15.90;99.90;;;;;;5004214;28;20117;-73
2023/09/05 00:41:56;;;;;;;10.25;6.18;;;15.90;99.90;;;;;;5004569;28;20041;-73
2023/09/05 00:44:22;;;;;;;8.85;5.93;;;15.80;99.90;;;;;;5003265;28;20107;-73
2023/09/05 00:46:48;;;;;;;9.35;5.53;;;15.90;99.90;;;;;;5004137;28;20042;-73
2023/09/05 00:49:17;;;;;;;9.32;5.65;;;15.80;99.90;;;;;;5003590;28;20385;-73
2023/09/05 00:51:45;;;;;;;11.80;6.43;;;15.80;99.90;;;;;;5003416;28;20074;-73
2023/09/05 00:54:12;;;;;;;8.32;6.15;;;15.80;99.90;;;;;;5003539;28;20042;-73
2023/09/05 00:56:37;;;;;;;10.15;6.07;;;15.80;99.90;;;;;;5004136;28;20382;-72
2023/09/05 00:59:06;;;;;;;9.85;6.68;;;15.80;99.90;;;;;;5002700;28;20080;-73
2023/09/05 01:01:32;;;;;;;12.82;6.82;;;15.70;99.90;;;;;;5003718;28;20452;-73
2023/09/05 01:03:58;;;;;;;8.32;6.00;;;15.70;99.90;;;;;;5003070;28;20061;-73
2023/09/05 01:06:37;;;;;;;8.75;6.60;;;15.70;99.90;;;;;;5003254;28;20433;-73
2023/09/05 01:09:18;;;;;;;9.20;5.57;;;15.70;99.90;;;;;;5070211;23;20058;-73
2023/09/05 01:11:44;;;;;;;11.13;7.25;;;15.60;99.90;;;;;;4993052;28;20050;-73
2023/09/05 01:14:10;;;;;;;11.80;6.50;;;15.60;99.90;;;;;;4997269;28;20508;-73
2023/09/05 01:16:45;;;;;;;9.02;5.07;;;15.50;99.90;;;;;;5004033;28;20045;-73
2023/09/05 01:19:16;;;;;;;11.48;6.68;;;15.50;99.90;;;;;;4992786;28;20086;-73
2023/09/05 01:21:55;;;;;;;8.65;5.78;;;15.40;99.90;;;;;;5004358;28;20052;-73
2023/09/05 01:24:21;;;;;;;10.18;6.45;;;15.50;99.90;;;;;;5003302;28;20042;-73
2023/09/05 01:26:52;;;;;;;9.90;6.53;;;15.40;99.90;;;;;;5003854;28;20384;-73
2023/09/05 01:29:29;;;;;;;8.57;6.35;;;15.40;99.90;;;;;;5002427;28;20042;-73
2023/09/05 01:31:58;;;;;;;11.00;7.25;;;15.40;99.90;;;;;;5001517;28;20050;-73
2023/09/05 01:34:24;;;;;;;12.07;7.18;;;15.40;99.90;;;;;;5002958;28;20065;-73
2023/09/05 01:36:50;;;;;;;11.23;6.90;;;15.40;99.90;;;;;;5003428;28;20054;-73
2023/09/05 01:39:15;;;;;;;11.43;6.80;;;15.30;99.90;;;;;;5002285;28;20050;-73
2023/09/05 01:41:41;;;;;;;13.65;6.88;;;15.30;99.90;;;;;;5003753;28;20037;-73
2023/09/05 01:44:07;;;;;;;9.43;6.88;;;15.40;99.90;;;;;;5001612;28;20061;-72
2023/09/05 01:46:33;;;;;;;9.80;6.10;;;15.30;99.90;;;;;;5003301;28;20038;-73
2023/09/05 01:48:58;;;;;;;11.88;6.95;;;15.30;99.90;;;;;;5003409;28;20551;-72
2023/09/05 01:51:24;;;;;;;10.25;6.90;;;15.30;99.90;;;;;;5003356;28;20484;-72
2023/09/05 01:53:49;;;;;;;11.15;5.82;;;15.30;99.90;;;;;;5000505;28;20042;-73
2023/09/05 01:56:15;;;;;;;10.07;6.90;;;15.30;99.90;;;;;;5003022;28;20425;-73
2023/09/05 01:58:41;;;;;;;14.25;7.32;;;15.30;99.90;;;;;;5001736;28;20046;-73
2023/09/05 02:01:07;;;;;;;12.50;6.20;;;15.30;99.90;;;;;;5003877;28;20052;-72
2023/09/05 02:03:32;;;;;;;10.52;7.05;;;15.20;99.90;;;;;;5001919;28;20440;-72
2023/09/05 02:05:58;;;;;;;11.30;6.90;;;15.20;99.90;;;;;;5003082;28;20129;-73
2023/09/05 02:08:23;;;;;;;12.73;7.10;;;15.20;99.90;;;;;;5002477;28;20120;-73
2023/09/05 02:10:49;;;;;;;11.77;6.78;;;15.20;99.90;;;;;;5003284;28;20457;-73
2023/09/05 02:13:17;;;;;;;10.68;6.47;;;15.20;99.90;;;;;;5003274;28;20519;-73
2023/09/05 02:15:43;;;;;;;9.32;6.30;;;15.10;99.90;;;;;;5002347;28;20046;-73
2023/09/05 02:18:11;;;;;;;9.60;6.35;;;15.10;99.90;;;;;;5004089;28;20038;-74
2023/09/05 02:20:42;;;;;;;10.88;6.57;;;15.10;99.90;;;;;;5007223;28;20077;-72
2023/09/05 02:23:08;;;;;;;11.00;7.03;;;15.10;99.90;;;;;;5006750;28;20038;-72
2023/09/05 02:25:34;;;;;;;12.07;6.60;;;15.00;99.90;;;;;;5007267;28;20125;-73
2023/09/05 02:27:59;;;;;;;11.70;7.28;;;15.00;99.90;;;;;;5006774;28;20136;-73
2023/09/05 02:30:26;;;;;;;10.55;6.07;;;15.00;99.90;;;;;;5005366;28;20095;-73
2023/09/05 02:32:56;;;;;;;11.20;7.05;;;15.00;99.90;;;;;;5006645;28;20034;-73
2023/09/05 02:35:27;;;;;;;8.90;5.97;;;15.00;99.90;;;;;;5006042;28;20566;-73
2023/09/05 02:37:54;;;;;;;10.90;6.90;;;15.00;99.90;;;;;;5005978;28;20084;-72
2023/09/05 02:40:20;;;;;;;10.63;6.03;;;15.00;99.90;;;;;;5006176;28;20076;-73
2023/09/05 02:42:46;;;;;;;12.93;6.63;;;15.00;99.90;;;;;;5004550;28;20129;-73
2023/09/05 02:45:12;;;;;;;9.85;6.40;;;15.10;99.90;;;;;;5003687;28;20523;-73
2023/09/05 02:47:38;;;;;;;10.75;6.65;;;15.10;99.90;;;;;;5005005;28;20073;-73
2023/09/05 02:50:04;;;;;;;10.38;6.47;;;15.10;99.90;;;;;;5006402;28;20081;-73
2023/09/05 02:52:31;;;;;;;12.15;6.63;;;15.00;99.90;;;;;;5003965;28;20042;-73
2023/09/05 02:54:57;;;;;;;11.15;6.93;;;15.00;99.90;;;;;;5006016;28;20141;-72
2023/09/05 02:57:23;;;;;;;11.02;7.05;;;15.00;99.90;;;;;;5004945;28;20373;-73
2023/09/05 02:59:53;;;;;;;11.45;6.30;;;15.00;99.90;;;;;;5003580;28;20049;-73
2023/09/05 03:02:19;;;;;;;8.43;6.07;;;15.00;99.90;;;;;;5005965;28;20455;-73
2023/09/05 03:04:45;;;;;;;11.02;6.18;;;15.00;99.90;;;;;;5006033;28;20048;-73
2023/09/05 03:07:11;;;;;;;9.30;6.55;;;14.90;99.90;;;;;;5005614;28;20057;-73
2023/09/05 03:09:38;;;;;;;8.82;5.63;;;14.90;99.90;;;;;;5005986;28;20503;-72
2023/09/05 03:12:05;;;;;;;9.30;5.53;;;14.90;99.90;;;;;;5006322;28;20061;-73
2023/09/05 03:14:31;;;;;;;10.20;6.63;;;14.90;99.90;;;;;;5004521;28;20041;-73
2023/09/05 03:16:57;;;;;;;11.40;6.15;;;14.90;99.90;;;;;;5005722;28;20064;-72
2023/09/05 03:19:23;;;;;;;10.45;6.80;;;14.90;99.90;;;;;;5004946;28;20120;-73
2023/09/05 03:21:49;;;;;;;11.00;6.53;;;14.80;99.90;;;;;;5006036;28;20539;-73
2023/09/05 03:24:17;;;;;;;8.93;5.82;;;14.80;99.90;;;;;;5004079;28;20064;-73
2023/09/05 03:26:46;;;;;;;10.40;6.55;;;14.90;99.90;;;;;;5004200;28;20042;-73
2023/09/05 03:29:13;;;;;;;12.38;6.88;;;14.80;99.90;;;;;;5002131;28;20046;-73
2023/09/05 03:31:42;;;;;;;10.90;6.88;;;14.80;99.90;;;;;;5004983;28;20036;-73
2023/09/05 03:34:08;;;;;;;12.63;8.25;;;14.80;99.90;;;;;;5004520;28;20053;-72
2023/09/05 03:36:35;;;;;;;11.13;7.53;;;14.80;99.90;;;;;;5005855;28;20137;-72
2023/09/05 03:39:00;;;;;;;9.90;7.07;;;14.80;99.90;;;;;;5005282;28;20045;-73
2023/09/05 03:41:26;;;;;;;9.93;6.03;;;14.80;99.90;;;;;;5003606;28;20550;-72
2023/09/05 03:43:52;;;;;;;11.75;6.60;;;14.80;99.90;;;;;;5004097;28;20535;-73
2023/09/05 03:46:17;;;;;;;11.55;6.63;;;14.80;99.90;;;;;;5004389;28;20396;-72
2023/09/05 03:48:43;;;;;;;9.95;6.05;;;14.70;99.90;;;;;;5005147;28;20188;-73
2023/09/05 03:51:08;;;;;;;10.95;6.82;;;14.70;99.90;;;;;;5004040;28;20420;-73
2023/09/05 03:53:34;;;;;;;8.75;6.57;;;14.70;99.90;;;;;;5005483;28;20034;-73
2023/09/05 03:55:59;;;;;;;12.15;6.95;;;14.70;99.90;;;;;;5004804;28;20512;-72
2023/09/05 03:58:25;;;;;;;9.50;6.15;;;14.70;99.90;;;;;;5003624;28;20042;-73
2023/09/05 04:00:51;;;;;;;11.68;6.90;;;14.60;99.90;;;;;;5004440;28;20042;-72
2023/09/05 04:03:16;;;;;;;11.27;7.32;;;14.60;99.90;;;;;;5004414;28;20049;-73
2023/09/05 04:05:42;;;;;;;10.50;6.15;;;14.70;99.90;;;;;;5004485;28;20048;-73
2023/09/05 04:08:09;;;;;;;9.05;6.65;;;14.60;99.90;;;;;;5005103;28;20503;-72
2023/09/05 04:10:35;;;;;;;10.02;6.78;;;14.60;99.90;;;;;;5004556;28;20077;-72
2023/09/05 04:13:00;;;;;;;10.20;6.40;;;14.60;99.90;;;;;;5003268;28;20561;-73
2023/09/05 04:15:27;;;;;;;11.55;6.88;;;14.60;99.90;;;;;;5004279;28;20485;-73
2023/09/05 04:17:53;;;;;;;12.18;7.22;;;14.60;99.90;;;;;;5002988;28;20108;-72
2023/09/05 04:20:19;;;;;;;11.75;6.68;;;14.60;99.90;;;;;;5004117;28;20415;-72
2023/09/05 04:22:45;;;;;;;13.38;7.15;;;14.60;99.90;;;;;;5002876;28;20125;-73
2023/09/05 04:25:10;;;;;;;10.48;6.97;;;14.50;99.90;;;;;;5002665;28;20554;-73
2023/09/05 04:27:36;;;;;;;10.27;6.28;;;14.60;99.90;;;;;;5004558;28;20598;-73
2023/09/05 04:30:03;;;;;;;11.43;7.15;;;14.60;99.90;;;;;;5001905;28;20072;-72
2023/09/05 04:32:31;;;;;;;9.43;6.60;;;14.50;99.90;;;;;;5003450;28;20053;-73
2023/09/05 04:35:05;;;;;;;11.48;6.78;;;14.50;99.90;;;;;;5004291;28;20050;-73
2023/09/05 04:37:31;;;;;;;13.02;6.82;;;14.50;99.90;;;;;;5003510;28;20040;-72
2023/09/05 04:39:57;;;;;;;11.38;6.88;;;14.50;99.90;;;;;;4998656;28;20128;-73
2023/09/05 04:42:28;;;;;;;10.48;6.93;;;14.50;99.90;;;;;;5001077;28;20053;-73
2023/09/05 04:44:53;;;;;;;12.13;6.40;;;14.50;99.90;;;;;;5003275;28;20100;-73
2023/09/05 04:47:24;;;;;;;15.50;8.10;;;14.50;99.90;;;;;;5001134;28;20661;-73
2023/09/05 04:49:56;;;;;;;10.88;6.53;;;14.50;99.90;;;;;;5001570;28;20392;-73
2023/09/05 04:52:23;;;;;;;13.37;6.73;;;14.40;99.90;;;;;;5003272;28;20046;-73
2023/09/05 04:54:48;;;;;;;11.73;6.53;;;14.40;99.90;;;;;;5003888;28;20442;-73
2023/09/05 04:57:16;;;;;;;10.65;7.30;;;14.40;99.90;;;;;;5002271;28;20034;-73
2023/09/05 04:59:47;;;;;;;10.02;6.68;;;14.40;99.90;;;;;;4997464;28;20050;-73
2023/09/05 05:02:13;;;;;;;10.55;6.35;;;14.40;99.90;;;;;;5001652;28;20069;-73
2023/09/05 05:04:40;;;;;;;9.43;5.90;;;14.40;99.90;;;;;;5001840;28;20202;-74
2023/09/05 05:07:06;;;;;;;12.43;7.00;;;14.40;99.90;;;;;;5003701;28;20046;-73
2023/09/05 05:09:32;;;;;;;10.63;6.47;;;14.40;99.90;;;;;;5001299;28;20069;-73
2023/09/05 05:11:59;;;;;;;11.93;7.35;;;14.40;99.90;;;;;;5002498;28;20057;-73
2023/09/05 05:14:24;;;;;;;14.32;7.30;;;14.40;99.90;;;;;;5001773;28;20404;-73
2023/09/05 05:16:50;;;;;;;10.82;6.88;;;14.40;99.90;;;;;;5004669;28;20034;-73
2023/09/05 05:19:16;;;;;;;12.43;6.80;;;14.50;99.90;;;;;;4987452;28;20176;-72
2023/09/05 05:21:41;;;;;;;11.35;7.28;;;14.40;99.90;;;;;;4996565;28;20113;-73
2023/09/05 05:24:08;;;;;;;9.80;5.95;;;14.50;99.90;;;;;;5000353;28;20064;-73
2023/09/05 05:26:33;;;;;;;12.70;6.82;;;14.50;99.90;;;;;;5008910;28;20140;-73
2023/09/05 05:28:59;;;;;;;9.60;6.38;;;14.40;99.90;;;;;;5002429;28;21928;-73
2023/09/05 05:31:26;;;;;;;10.45;6.57;;;14.50;99.90;;;;;;5002953;28;20049;-73
2023/09/05 05:33:52;;;;;;;12.65;6.00;;;14.50;99.90;;;;;;5012484;28;20042;-73
2023/09/05 05:36:18;;;;;;;9.93;6.25;;;14.50;99.90;;;;;;5017125;28;20120;-72
2023/09/05 05:38:44;;;;;;;9.80;6.47;;;14.50;99.90;;;;;;5014570;28;20510;-72
2023/09/05 05:41:10;;;;;;;11.07;6.45;;;14.50;99.90;;;;;;5002119;28;20042;-72
2023/09/05 05:43:36;;;;;;;9.30;6.20;;;14.50;99.90;;;;;;4999283;28;20041;-72
2023/09/05 05:46:05;;;;;;;11.82;6.75;;;14.60;99.90;;;;;;5004392;28;20045;-73
2023/09/05 05:48:31;;;;;;;10.07;5.80;;;14.60;99.90;;;;;;4999699;28;20045;-72
2023/09/05 05:50:57;;;;;;;11.23;6.47;;;14.60;99.90;;;;;;5018371;28;20038;-74
2023/09/05 05:53:24;;;;;;;8.75;5.95;;;14.60;99.90;;;;;;5010874;28;20071;-73
2023/09/05 05:55:50;;;;;;;10.15;5.30;;;14.70;99.90;;;;;;5006865;28;20038;-74
2023/09/05 05:58:15;;;;;;;9.32;5.82;;;14.70;99.90;;;;;;5014368;28;20557;-74
2023/09/05 06:00:50;;;;;;;10.90;6.57;;;14.70;99.90;;;;;;5007401;28;20045;-73
2023/09/05 06:03:17;;;;;;;11.95;5.70;;;14.70;99.90;;;;;;5006058;28;20046;-73
2023/09/05 06:05:43;;;;;;;9.55;6.63;;;14.80;99.90;;;;;;5007645;28;20140;-73
2023/09/05 06:08:09;;;;;;;10.02;6.07;;;14.80;99.90;;;;;;5006601;28;20052;-73
2023/09/05 06:10:34;;;;;;;12.45;6.55;;;14.80;99.90;;;;;;4999403;28;20046;-74
2023/09/05 06:13:00;;;;;;;10.32;6.90;;;14.80;99.90;;;;;;4969219;28;20042;-72
2023/09/05 06:15:25;;;;;;;14.38;6.68;;;14.90;99.90;;;;;;4987726;28;20042;-74
2023/09/05 06:17:51;;;;;;;9.85;6.60;;;14.90;99.90;;;;;;4987599;28;20557;-74
2023/09/05 06:20:17;;;;;;;15.73;6.90;;;14.90;99.90;;;;;;4987598;28;20136;-73
2023/09/05 06:22:44;;;;;;;13.85;7.18;;;15.00;99.90;;;;;;4987244;28;20481;-73
2023/09/05 06:25:10;;;;;;;9.27;6.07;;;15.00;99.90;;;;;;4983617;28;20042;-73
2023/09/05 06:27:36;;;;;;;9.93;6.53;;;15.00;99.90;;;;;;4970197;28;20393;-74
2023/09/05 06:30:05;;;;;;;12.35;6.55;;;15.10;99.90;;;;;;4969101;28;20100;-74
2023/09/05 06:32:31;;;;;;;13.05;6.60;;;15.10;99.90;;;;;;4987005;28;20074;-74
2023/09/05 06:34:56;;;;;;;14.77;6.85;;;15.10;99.90;;;;;;4986342;28;20463;-73
2023/09/05 06:37:24;;;;;;;10.80;5.78;;;15.20;99.90;;;;;;4958162;28;20082;-73
2023/09/05 06:39:50;;;;;;;11.68;6.38;;;15.20;99.90;;;;;;4987015;28;20050;-73
2023/09/05 06:42:16;;;;;;;11.23;6.07;;;15.30;99.90;;;;;;4969361;28;20061;-74
2023/09/05 06:44:43;;;;;;;10.70;6.45;;;15.30;99.90;;;;;;4985241;28;20058;-74
2023/09/05 06:47:08;;;;;;;8.10;6.25;;;15.30;99.90;;;;;;4986473;28;20050;-72
2023/09/05 06:49:34;;;;;;;12.10;6.22;;;15.40;99.90;;;;;;4987743;28;20046;-73
2023/09/05 06:52:00;;;;;;;9.50;5.85;;;15.40;99.90;;;;;;4972417;28;20098;-74
2023/09/05 06:54:25;;;;;;;8.75;6.28;;;15.50;99.90;;;;;;4986340;28;20281;-74
2023/09/05 06:56:51;;;;;;;13.57;7.00;;;15.50;99.90;;;;;;4987479;28;20039;-74
2023/09/05 06:59:17;;;;;;;11.80;5.93;;;15.60;99.90;;;;;;4985900;28;20073;-75
2023/09/05 07:01:44;;;;;;;11.80;5.95;;;15.70;99.90;;;;;;4969302;28;20058;-74
2023/09/05 07:04:10;;;;;;;10.52;6.65;;;15.60;99.90;;;;;;4986370;28;20117;-74
2023/09/05 07:06:36;;;;;;;9.70;6.60;;;15.70;99.90;;;;;;4996468;28;20049;-75
2023/09/05 07:09:02;;;;;;;13.20;7.35;;;15.80;99.90;;;;;;4979893;28;20137;-75
2023/09/05 07:11:28;;;;;;;11.60;6.30;;;15.80;99.90;;;;;;5006388;28;20290;-74
2023/09/05 07:13:54;;;;;;;9.65;5.35;;;15.80;99.90;;;;;;5005245;28;20046;-73
2023/09/05 07:16:19;;;;;;;10.18;6.13;;;15.90;99.90;;;;;;4997485;28;20104;-74
2023/09/05 07:18:45;;;;;;;10.55;6.20;;;16.00;99.90;;;;;;4986427;28;20042;-74
2023/09/05 07:21:10;;;;;;;12.85;5.95;;;16.00;99.90;;;;;;4986785;28;20081;-74
2023/09/05 07:23:37;;;;;;;10.75;6.97;;;16.10;99.90;;;;;;4987022;28;20460;-74
2023/09/05 07:26:07;;;;;;;11.65;5.43;;;16.20;99.90;;;;;;4988132;28;20088;-74
2023/09/05 07:28:35;;;;;;;13.90;5.85;;;16.20;99.90;;;;;;5004006;28;20049;-80
2023/09/05 07:31:01;;;;;;;9.60;5.88;;;16.20;99.90;;;;;;5013775;28;20069;-74
2023/09/05 07:33:28;;;;;;;10.10;6.32;;;16.20;99.90;;;;;;5007155;28;20420;-73
2023/09/05 07:35:54;;;;;;;12.80;6.38;;;16.30;99.90;;;;;;5003528;28;20084;-76
2023/09/05 07:38:21;;;;;;;9.48;6.18;;;16.30;99.90;;;;;;5005389;28;20349;-74
2023/09/05 07:41:09;;;;;;;14.18;6.07;;;16.40;99.90;;;;;;5002832;28;20049;-74
2023/09/05 07:43:35;;;;;;;14.85;5.68;;;16.40;99.90;;;;;;5005110;28;20042;-74
2023/09/05 07:46:01;;;;;;;8.57;5.78;;;16.50;99.90;;;;;;5004426;28;20038;-76
2023/09/05 07:48:27;;;;;;;8.77;5.38;;;16.50;99.90;;;;;;5004516;28;20120;-72
2023/09/05 07:51:03;;;;;;;11.85;5.75;;;16.60;99.90;;;;;;5003264;28;20132;-73
2023/09/05 07:53:31;;;;;;;9.23;5.75;;;16.70;99.90;;;;;;5001730;28;20041;-73
2023/09/05 07:55:57;;;;;;;7.63;4.95;;;16.70;99.90;;;;;;5002047;28;20085;-73
2023/09/05 07:58:23;;;;;;;8.98;6.10;;;16.80;99.90;;;;;;5002817;28;20046;-73
2023/09/05 08:00:49;;;;;;;11.45;5.80;;;16.80;99.90;;;;;;4994531;28;20053;-72
2023/09/05 08:03:16;;;;;;;9.27;5.97;;;16.90;99.90;;;;;;5001188;28;20088;-74
2023/09/05 08:05:41;;;;;;;10.70;5.25;;;16.90;99.90;;;;;;5000399;28;20423;-74
2023/09/05 08:08:07;;;;;;;9.45;5.35;;;16.90;99.90;;;;;;4984719;28;20046;-74
2023/09/05 08:10:33;;;;;;;7.57;5.07;;;17.00;99.90;;;;;;4978355;28;20092;-73
2023/09/05 08:12:59;;;;;;;9.48;5.22;;;17.10;99.90;;;;;;5002737;28;20052;-73
2023/09/05 08:15:25;;;;;;;9.43;5.38;;;17.20;99.90;;;;;;5000760;28;20493;-73
2023/09/05 08:17:51;;;;;;;8.20;4.78;;;17.20;99.90;;;;;;5003277;28;20456;-74
2023/09/05 08:20:17;;;;;;;9.57;4.95;;;17.30;99.90;;;;;;5002385;28;20045;-74
2023/09/05 08:22:46;;;;;;;13.60;4.88;;;17.40;99.90;;;;;;5002833;28;20361;-74
2023/09/05 08:25:15;;;;;;;6.70;4.53;;;17.50;99.90;;;;;;5003224;28;20100;-74
2023/09/05 08:27:41;;;;;;;7.80;4.82;;;17.60;99.90;;;;;;5002980;28;20083;-74
2023/09/05 08:30:11;;;;;;;8.73;5.53;;;17.60;99.90;;;;;;5003358;28;20050;-74
2023/09/05 08:32:40;;;;;;;8.65;5.10;;;17.70;99.90;;;;;;5003974;28;20042;-74
2023/09/05 08:35:09;;;;;;;7.65;4.80;;;17.80;99.90;;;;;;5002109;28;20050;-73
2023/09/05 08:37:35;;;;;;;7.05;4.50;;;17.80;99.90;;;;;;5002520;28;20096;-73
2023/09/05 08:40:01;;;;;;;10.73;5.03;;;17.90;99.90;;;;;;5001922;28;20046;-73
2023/09/05 08:42:31;;;;;;;10.20;5.82;;;17.90;99.90;;;;;;4997542;28;20069;-74
2023/09/05 08:44:58;;;;;;;7.10;4.72;;;18.00;99.90;;;;;;5003046;28;20050;-74
2023/09/05 08:47:26;;;;;;;9.60;5.05;;;18.10;99.90;;;;;;5002923;28;20044;-75
2023/09/05 08:49:53;;;;;;;6.68;4.50;;;18.20;99.90;;;;;;5001916;28;20050;-74
2023/09/05 08:52:20;;;;;;;6.78;4.75;;;18.20;99.90;;;;;;5001594;28;20046;-75
2023/09/05 08:54:47;;;;;;;9.60;5.07;;;18.30;99.90;;;;;;5003482;28;20049;-75
2023/09/05 08:57:17;;;;;;;6.05;4.45;;;18.40;99.90;;;;;;5002578;28;20034;-74
2023/09/05 08:59:43;;;;;;;7.00;4.28;;;18.50;99.90;;;;;;5001898;28;20077;-75
2023/09/05 09:02:13;;;;;;;8.13;4.15;;;18.60;99.90;;;;;;5002888;28;20046;-72
2023/09/05 09:04:58;;;;;;;5.53;4.35;;;18.60;99.90;;;;;;5002563;28;20049;-73
2023/09/05 09:07:27;;;;;;;6.05;3.38;;;18.70;99.90;;;;;;5002860;28;20089;-73
2023/09/05 09:09:53;;;;;;;5.53;3.97;;;18.80;99.90;;;;;;5001971;28;20064;-73
2023/09/05 09:12:29;;;;;;;5.20;3.42;;;18.90;99.90;;;;;;5001564;28;20488;-73
2023/09/05 09:14:54;;;;;;;5.45;3.33;;;18.90;99.90;;;;;;5003721;28;20467;-73
2023/09/05 09:17:22;;;;;;;5.47;3.40;;;19.00;99.90;;;;;;5003026;28;20042;-73
2023/09/05 09:19:48;;;;;;;5.20;3.13;;;19.10;99.90;;;;;;5002809;28;20132;-74
2023/09/05 09:22:14;;;;;;;5.18;2.97;;;19.10;99.90;;;;;;5001986;28;20128;-74
2023/09/05 09:24:39;;;;;;;4.45;2.72;;;19.20;99.90;;;;;;5001793;28;20485;-74
2023/09/05 09:27:05;;;;;;;6.72;3.53;;;19.30;99.90;;;;;;5002118;28;20040;-73
2023/09/05 09:29:32;;;;;;;5.13;3.08;;;19.30;99.90;;;;;;5005408;28;20048;-73
2023/09/05 09:32:05;;;;;;;3.15;2.53;;;19.40;99.90;;;;;;5006267;28;20102;-75
2023/09/05 09:34:32;;;;;;;5.45;2.70;;;19.50;99.90;;;;;;5006337;28;20125;-75
2023/09/05 09:36:58;;;;;;;4.10;2.45;;;19.50;99.90;;;;;;5005796;28;20052;-76
2023/09/05 09:39:25;;;;;;;4.50;2.05;;;19.60;99.90;;;;;;5005509;28;20427;-75
2023/09/05 09:41:51;;;;;;;3.60;2.35;;;19.70;99.90;;;;;;5003465;28;20046;-76
2023/09/05 09:44:31;;;;;;;3.63;2.50;;;19.70;99.90;;;;;;5003541;28;20320;-79
2023/09/05 09:46:59;;;;;;;3.15;2.40;;;19.80;99.90;;;;;;5005630;28;20046;-75
2023/09/05 09:49:28;;;;;;;2.97;2.50;;;19.90;99.90;;;;;;5004683;28;20137;-76
2023/09/05 09:51:57;;;;;;;3.58;2.60;;;20.00;99.90;;;;;;5005156;28;20041;-74
2023/09/05 09:54:31;;;;;;;2.72;2.28;;;20.00;99.90;;;;;;5005942;28;20038;-76
2023/09/05 09:57:06;;;;;;;2.55;1.92;;;20.10;99.90;;;;;;5004500;28;20492;-76
2023/09/05 09:59:37;;;;;;;3.15;1.85;;;20.20;99.90;;;;;;5005930;28;20049;-75
2023/09/05 10:02:15;;;;;;;2.57;1.77;;;20.30;99.90;;;;;;5005189;28;20092;-76
2023/09/05 10:04:41;;;;;;;2.40;2.00;;;20.30;99.90;;;;;;5003997;28;20651;-76
2023/09/05 10:07:11;;;;;;;3.05;2.05;;;20.40;99.90;;;;;;5006187;28;20045;-77
2023/09/05 10:09:39;;;;;;;3.10;2.10;;;20.50;99.90;;;;;;5005510;28;20057;-76
2023/09/05 10:12:06;;;;;;;3.50;2.53;;;20.60;99.90;;;;;;5005547;28;20057;-78
2023/09/05 10:14:33;;;;;;;2.33;2.00;;;20.60;99.90;;;;;;5005753;28;20046;-77
2023/09/05 10:17:00;;;;;;;2.45;2.00;;;20.70;99.90;;;;;;5004105;28;20041;-77
2023/09/05 10:19:26;;;;;;;3.38;1.73;;;20.70;99.90;;;;;;4987448;28;20041;-77
2023/09/05 10:21:55;;;;;;;4.50;1.80;;;20.80;99.90;;;;;;5003792;28;20045;-76
2023/09/05 10:24:22;;;;;;;2.85;1.95;;;20.80;99.90;;;;;;5005859;28;20045;-76
2023/09/05 10:26:48;;;;;;;2.80;1.75;;;20.90;99.90;;;;;;5005419;28;20049;-75
2023/09/05 10:29:32;;;;;;;2.30;2.10;;;20.90;99.90;;;;;;5004734;28;20415;-76
2023/09/05 10:31:58;;;;;;;2.65;1.77;;;20.90;99.90;;;;;;5004683;28;20107;-75
2023/09/05 10:34:45;;;;;;;2.40;1.67;;;20.90;99.90;;;;;;5005625;28;20443;-75
2023/09/05 10:37:13;;;;;;;7.78;2.17;;;21.00;99.90;;;;;;5004126;28;20038;-74
2023/09/05 10:39:45;;;;;;;3.65;2.45;;;21.10;99.90;;;;;;5004669;28;20121;-75
2023/09/05 10:42:15;;;;;;;3.40;2.05;;;21.10;99.90;;;;;;5002513;28;20109;-75
2023/09/05 10:44:47;;;;;;;1.90;1.55;;;21.20;99.90;;;;;;4987039;28;20038;-77
2023/09/05 10:47:29;;;;;;;;;;;21.30;99.90;;;;;;5004902;28;20052;-77
2023/09/05 10:49:58;;;;;;;2.88;1.88;;;21.40;99.90;;;;;;5003414;28;20024;-76
2023/09/05 10:52:27;;;;;;;3.60;1.83;;;21.40;99.90;;;;;;5002385;28;20077;-75
2023/09/05 10:54:53;;;;;;;2.13;1.88;;;21.40;99.90;;;;;;5003174;28;20053;-77
2023/09/05 10:57:38;;;;;;;2.25;1.70;;;21.50;99.90;;;;;;5003062;28;20040;-77
2023/09/05 11:00:28;;;;;;;1.80;1.58;;;21.50;99.90;;;;;;5000272;28;20053;-77
2023/09/05 11:03:08;;;;;;;2.25;1.45;;;21.60;99.90;;;;;;5004628;28;20046;-78
2023/09/05 11:05:34;;;;;;;5.80;1.85;;;21.60;99.90;;;;;;5003049;28;20041;-76
2023/09/05 11:08:00;;;;;;;1.90;1.70;;;21.70;99.90;;;;;;5004874;28;20049;-75
2023/09/05 11:10:28;;;;;;;1.95;1.75;;;21.80;99.90;;;;;;5003301;28;20111;-75
2023/09/05 11:12:55;;;;;;;2.05;1.30;;;21.80;99.90;;;;;;4992251;28;20054;-75
2023/09/05 11:15:47;;;;;;;3.33;1.50;;;21.80;99.90;;;;;;5003501;28;20345;-75
2023/09/05 11:18:17;;;;;;;2.75;1.58;;;21.80;99.90;;;;;;4998667;28;20042;-76
2023/09/05 11:20:48;;;;;;;2.55;1.77;;;21.80;99.90;;;;;;5002482;28;20072;-75
2023/09/05 11:23:20;;;;;;;2.50;1.50;;;21.90;99.90;;;;;;5019224;28;20105;-75
2023/09/05 11:25:47;;;;;;;2.50;1.83;;;22.00;99.90;;;;;;5003422;28;20412;-76
2023/09/05 11:28:14;;;;;;;1.90;1.63;;;22.00;99.90;;;;;;5001605;28;20062;-75
2023/09/05 11:30:42;;;;;;;1.58;1.40;;;22.10;99.90;;;;;;5004701;28;20049;-75
2023/09/05 11:33:10;;;;;;;1.60;1.50;;;22.10;99.90;;;;;;5003472;28;20037;-75
2023/09/05 11:35:38;;;;;;;2.08;1.48;;;22.10;99.90;;;;;;5005165;28;20443;-76
2023/09/05 11:38:04;;;;;;;4.35;1.50;;;22.10;99.90;;;;;;5002008;28;20053;-75
2023/09/05 11:40:30;;;;;;;1.65;1.55;;;22.10;99.90;;;;;;5004288;28;20677;-75
2023/09/05 11:43:06;;;;;;;3.45;1.48;;;22.20;99.90;;;;;;5003650;28;20457;-76
2023/09/05 11:45:34;;;;;;;2.78;1.25;;;22.30;99.90;;;;;;5003816;28;20052;-75
2023/09/05 11:48:02;;;;;;;1.55;1.45;;;22.40;99.90;;;;;;5004158;28;20038;-76
2023/09/05 11:50:28;;;;;;;2.38;1.50;;;22.40;99.90;;;;;;5003353;28;20369;-76
2023/09/05 11:52:55;;;;;;;1.45;1.20;;;22.50;99.90;;;;;;5003689;28;20229;-75
2023/09/05 11:55:24;;;;;;;1.75;1.60;;;22.50;99.90;;;;;;5003849;28;20452;-76
2023/09/05 11:57:54;;;;;;;1.27;1.08;;;22.60;99.90;;;;;;5001819;28;20048;-75
2023/09/05 12:00:20;;;;;;;1.77;1.27;;;22.70;99.90;;;;;;5003876;28;20099;-76
2023/09/05 12:02:46;;;;;;;2.42;1.90;;;22.80;99.90;;;;;;4986986;28;20402;-75
2023/09/05 12:05:13;;;;;;;2.70;2.13;;;22.80;99.90;;;;;;5001880;28;20042;-75
2023/09/05 12:07:39;;;;;;;1.20;1.10;;;22.80;99.90;;;;;;5003878;28;20056;-75
2023/09/05 12:10:05;;;;;;;2.83;1.60;;;22.80;99.90;;;;;;4984751;28;20063;-75
2023/09/05 12:12:31;;;;;;;1.60;1.50;;;22.80;99.90;;;;;;4987141;28;20447;-75
2023/09/05 12:14:59;;;;;;;1.80;1.30;;;22.90;99.90;;;;;;5001297;28;20046;-76
2023/09/05 12:17:26;;;;;;;1.48;1.38;;;22.90;99.90;;;;;;5003090;28;20327;-75
2023/09/05 12:19:53;;;;;;;2.08;1.40;;;22.90;99.90;;;;;;5003586;28;20052;-76
2023/09/05 12:22:29;;;;;;;3.30;1.63;;;22.90;99.90;;;;;;5003581;28;20076;-76
2023/09/05 12:25:14;;;;;;;2.15;1.50;;;22.80;99.90;;;;;;5001817;28;20052;-76
2023/09/05 12:27:42;;;;;;;2.10;1.35;;;22.90;99.90;;;;;;4999897;28;20512;-77
2023/09/05 12:30:22;;;;;;;1.63;1.40;;;22.90;99.90;;;;;;5003447;28;20049;-76
2023/09/05 12:32:48;;;;;;;7.07;1.75;;;23.00;99.90;;;;;;5001715;28;20042;-85
2023/09/05 12:35:13;;;;;;;5.60;1.13;;;22.90;99.90;;;;;;5003474;28;20570;-83
2023/09/05 12:37:39;;;;;;;2.20;1.88;;;23.00;99.90;;;;;;5003110;28;20488;-83
2023/09/05 12:40:06;;;;;;;1.65;1.20;;;23.00;99.90;;;;;;5004897;28;20050;-83
2023/09/05 12:42:32;;;;;;;1.58;1.48;;;23.00;99.90;;;;;;4985885;28;20599;-83
2023/09/05 12:44:58;;;;;;;2.22;1.45;;;23.00;99.90;;;;;;5005003;28;20041;-84
2023/09/05 12:47:23;;;;;;;2.53;1.73;;;23.00;99.90;;;;;;5002453;28;20046;-84